MST,Max TemperatureF,Mean TemperatureF,Min TemperatureF,Max Dew PointF,MeanDew PointF,Min DewpointF,Max Humidity, Mean Humidity, Min Humidity, Max Sea Level PressureIn, Mean Sea Level PressureIn, Min Sea Level PressureIn, Max VisibilityMiles, Mean VisibilityMiles, Min VisibilityMiles, Max Wind SpeedMPH, Mean Wind SpeedMPH, Max Gust SpeedMPH,PrecipitationIn, CloudCover, Events, WindDirDegrees
2012-2-1,46,36,27,26,18,12,65,44,29,30.09,30.03,29.94,10,10,8,30,19,39,0.00,2,Snow,242
2012-2-2,37,30,23,31,26,18,93,78,52,30.45,30.24,30.06,10,8,1,16,6,,0.03,7,Snow,326
2012-2-3,36,24,12,22,17,9,89,74,52,30.56,30.47,30.36,10,10,10,8,4,,0.00,3,,87
2012-2-4,42,27,12,17,12,8,85,66,32,30.58,30.46,30.32,10,10,10,17,5,,0.00,0,,289
2012-2-5,45,30,16,11,10,9,74,50,25,30.45,30.32,30.14,10,10,10,17,11,,0.00,0,,274
2012-2-6,32,23,14,25,18,8,86,77,66,30.52,30.39,30.26,10,9,2,18,9,24,0.00,6,Snow,82
2012-2-7,24,22,19,18,16,13,86,81,65,30.47,30.35,30.18,10,8,2,16,14,24,0.00,8,Snow,80
2012-2-8,44,27,10,16,12,8,88,57,24,30.34,30.24,30.14,10,10,10,26,12,34,0.00,3,,277
2012-2-9,46,36,26,23,20,17,72,49,33,30.25,30.21,30.14,10,10,10,26,19,34,0.00,7,,264
2012-2-10,28,20,12,18,13,8,86,82,66,30.48,30.28,30.16,10,4,1,20,13,23,0.01,7,Snow,75
2012-2-11,16,8,1,8,5,-3,85,79,71,30.48,30.37,30.22,10,8,2,10,7,,0.00,6,Snow,103
2012-2-12,39,21,3,27,17,-1,84,75,62,30.22,29.96,29.72,10,9,2,12,7,,0.00,5,Snow,283
2012-2-13,37,32,28,27,24,21,86,71,57,29.83,29.78,29.73,10,10,3,13,7,,0.01,8,Snow,261
2012-2-14,37,29,19,25,18,12,80,61,36,29.93,29.80,29.69,10,10,10,24,10,32,0.00,7,,282
2012-2-15,36,24,12,15,12,7,80,62,39,30.27,30.13,29.96,10,10,10,20,8,25,0.00,3,,277
2012-2-16,42,30,19,15,10,6,71,43,24,30.25,30.17,30.02,10,10,10,36,21,48,0.00,3,,246
2012-2-17,42,35,28,21,19,15,63,51,40,30.20,30.12,30.02,10,10,9,30,19,44,0.00,5,Snow,249
2012-2-18,46,35,24,27,22,12,93,65,34,30.00,29.88,29.76,10,7,0,33,18,48,0.07,5,Fog-Snow,260
2012-2-19,34,22,10,20,13,6,88,64,44,29.99,29.92,29.78,10,10,10,21,11,28,0.00,2,,267
2012-2-20,32,28,23,21,15,8,69,57,47,29.94,29.91,29.88,10,10,10,29,19,40,0.00,6,,253
2012-2-21,46,38,32,34,26,18,82,65,45,29.87,29.74,29.62,10,10,3,36,26,48,0.03,7,Rain-Snow,250
2012-2-22,50,38,25,36,26,21,93,72,39,29.78,29.61,29.29,10,6,1,47,23,61,0.03,8,Rain-Snow,282
2012-2-23,32,28,25,25,18,8,80,67,40,30.14,30.00,29.73,10,8,0,26,17,34,0.00,7,Snow,264
2012-2-24,42,34,27,16,13,8,58,42,29,30.23,30.08,29.79,10,10,10,31,19,46,0.00,5,,244
2012-2-25,42,35,28,30,22,9,87,65,42,29.83,29.55,29.34,10,7,0,41,23,50,0.00,5,Fog-Snow,245
2012-2-26,35,27,17,14,10,5,81,49,34,30.15,30.03,29.85,10,10,10,29,19,38,0.00,6,,238
2012-2-27,35,24,12,14,10,7,88,66,31,30.13,30.05,29.95,10,10,10,12,6,,0.00,0,,105
2012-2-28,33,24,15,22,16,8,80,68,47,29.96,29.86,29.76,10,8,1,24,8,37,0.00,6,Snow,246
2012-2-29,39,32,24,25,17,9,86,58,37,29.84,29.65,29.51,10,8,1,32,20,45,0.00,4,Snow,244